Time;durP1;ratioP1;P1;durP2;ratioP2;P2;SDS_P1;SDS_P2;PMS_P1;PMS_P2;Temp;Humidity;BMP_temperature;BMP_pressure;BME280_temperature;BME280_humidity;BME280_pressure;Samples;Min_cycle;Max_cycle;Signal;HPM_P1;HPM_P2
2022/10/03 00:00:15;;;;;;;6.03;3.10;;;11.80;91.20;;;;;;5013967;28;20030;-79
2022/10/03 00:02:43;;;;;;;6.40;3.10;;;11.70;91.50;;;;;;5013389;28;20368;-79
2022/10/03 00:05:36;;;;;;;4.88;2.72;;;11.70;91.60;;;;;;5013534;28;20419;-79
2022/10/03 00:08:30;;;;;;;4.90;3.35;;;11.80;91.60;;;;;;5013888;28;20457;-80
2022/10/03 00:10:56;;;;;;;7.30;3.33;;;11.80;91.50;;;;;;5013818;28;20025;-80
2022/10/03 00:13:56;;;;;;;5.28;3.85;;;11.90;91.50;;;;;;5013735;28;20109;-79
2022/10/03 00:16:51;;;;;;;5.40;3.55;;;11.90;91.40;;;;;;5013325;28;20049;-77
2022/10/03 00:19:35;;;;;;;5.50;3.20;;;11.90;91.10;;;;;;4996033;28;20387;-78
2022/10/03 00:22:17;;;;;;;7.68;3.90;;;12.00;91.20;;;;;;5013730;28;20029;-77
2022/10/03 00:24:58;;;;;;;3.47;2.63;;;12.00;90.70;;;;;;5013598;28;20449;-78
2022/10/03 00:27:42;;;;;;;5.28;2.95;;;12.00;90.90;;;;;;5013557;28;20549;-80
2022/10/03 00:30:18;;;;;;;3.42;2.80;;;12.10;90.80;;;;;;5016246;28;20094;-79
2022/10/03 00:33:12;;;;;;;4.90;3.10;;;12.10;90.70;;;;;;5013428;28;20060;-76
2022/10/03 00:36:08;;;;;;;3.95;2.63;;;12.10;90.50;;;;;;5013646;28;20049;-77
2022/10/03 00:39:06;;;;;;;5.05;2.65;;;12.10;90.30;;;;;;5013459;28;20029;-77
2022/10/03 00:41:52;;;;;;;4.32;2.83;;;12.10;90.20;;;;;;5013366;28;20033;-76
2022/10/03 00:45:04;;;;;;;3.17;2.88;;;12.10;90.10;;;;;;4995831;28;20022;-76
2022/10/03 00:47:54;;;;;;;9.00;3.75;;;12.10;90.00;;;;;;4959844;28;20078;-76
2022/10/03 00:50:45;;;;;;;9.85;4.90;;;12.10;89.80;;;;;;5013139;28;20026;-80
2022/10/03 00:53:45;;;;;;;7.25;4.13;;;12.00;89.20;;;;;;5013155;28;20042;-77
2022/10/03 00:56:20;;;;;;;6.40;3.50;;;11.90;89.60;;;;;;4988790;28;20514;-77
2022/10/03 00:58:58;;;;;;;6.82;4.00;;;11.90;89.80;;;;;;5013096;28;20036;-76
2022/10/03 01:01:33;;;;;;;5.90;3.30;;;11.90;89.90;;;;;;5012857;28;20026;-77
2022/10/03 01:03:59;;;;;;;;;;;11.90;89.90;;;;;;5013715;28;20470;-76
2022/10/03 01:07:09;;;;;;;5.60;3.40;;;11.90;89.90;;;;;;5012906;28;19996;-77
2022/10/03 01:10:08;;;;;;;6.72;3.30;;;11.90;89.90;;;;;;5006822;28;20045;-77
2022/10/03 01:12:58;;;;;;;4.57;3.15;;;11.80;89.60;;;;;;4996835;28;20486;-77
2022/10/03 01:16:03;;;;;;;4.78;3.60;;;11.80;89.50;;;;;;5016824;28;20442;-76
2022/10/03 01:18:49;;;;;;;3.75;2.90;;;11.80;89.60;;;;;;5016819;28;20030;-76
2022/10/03 01:21:46;;;;;;;5.25;2.85;;;11.70;90.40;;;;;;5016927;28;20084;-76
2022/10/03 01:24:55;;;;;;;6.68;3.20;;;11.70;89.50;;;;;;5016957;28;20053;-76
2022/10/03 01:30:41;;;;;;;3.28;3.00;;;11.60;89.30;;;;;;5016957;28;20040;-77
2022/10/03 01:33:36;;;;;;;3.83;3.13;;;11.60;89.30;;;;;;5016546;28;20042;-76
2022/10/03 01:36:24;;;;;;;6.00;4.95;;;11.50;89.20;;;;;;5016580;28;20032;-76
2022/10/03 01:38:57;;;;;;;5.60;4.35;;;11.40;89.20;;;;;;5016699;28;20109;-77
2022/10/03 01:41:46;;;;;;;6.38;3.28;;;11.40;89.30;;;;;;5016382;28;20045;-77
2022/10/03 01:44:39;;;;;;;3.47;2.38;;;11.30;89.20;;;;;;5016480;28;20022;-77
2022/10/03 01:47:05;;;;;;;4.15;2.50;;;11.30;89.40;;;;;;4998835;28;20425;-79
2022/10/03 01:49:41;;;;;;;5.30;2.28;;;11.30;89.40;;;;;;5016412;28;20026;-78
2022/10/03 01:52:38;;;;;;;2.03;1.80;;;11.20;89.30;;;;;;5016268;28;20034;-78
2022/10/03 01:55:28;;;;;;;4.80;2.08;;;11.20;89.20;;;;;;5016333;28;20025;-77
2022/10/03 01:58:02;;;;;;;3.33;2.33;;;11.20;89.40;;;;;;5016304;28;20022;-78
2022/10/03 02:00:43;;;;;;;2.42;1.70;;;11.20;89.30;;;;;;5016247;28;20022;-77
2022/10/03 02:03:25;;;;;;;3.13;2.28;;;11.10;89.20;;;;;;5016107;28;20042;-78
2022/10/03 02:06:14;;;;;;;2.88;1.90;;;11.10;89.10;;;;;;5016208;28;20038;-77
2022/10/03 02:09:10;;;;;;;2.70;1.65;;;11.10;88.80;;;;;;5016167;28;20021;-77
2022/10/03 02:12:02;;;;;;;3.13;1.55;;;11.10;88.70;;;;;;5016200;28;20092;-77
2022/10/03 02:14:50;;;;;;;2.58;1.55;;;11.10;88.50;;;;;;5015855;28;20065;-77
2022/10/03 02:17:34;;;;;;;1.35;1.17;;;11.00;88.40;;;;;;4996360;28;20538;-77
2022/10/03 02:20:12;;;;;;;1.90;1.40;;;11.00;88.50;;;;;;4996419;28;20471;-78
2022/10/03 02:22:50;;;;;;;1.77;1.40;;;11.00;88.30;;;;;;4978781;28;20034;-78
2022/10/03 02:25:50;;;;;;;1.83;1.25;;;11.00;88.20;;;;;;4995069;28;20022;-77
2022/10/03 02:28:43;;;;;;;1.88;1.60;;;10.90;88.10;;;;;;4996261;28;20059;-76
2022/10/03 02:31:46;;;;;;;1.83;1.67;;;10.90;88.30;;;;;;4996271;28;20497;-77
2022/10/03 02:34:18;;;;;;;2.03;1.65;;;10.80;88.40;;;;;;4996181;28;20038;-78
2022/10/03 02:36:55;;;;;;;3.00;2.25;;;10.80;88.70;;;;;;4996137;28;20023;-77
2022/10/03 02:39:24;;;;;;;2.33;2.13;;;10.80;88.90;;;;;;4995450;28;20022;-77
2022/10/03 02:42:11;;;;;;;3.58;1.90;;;10.80;88.70;;;;;;4995829;28;20022;-77
2022/10/03 02:45:08;;;;;;;3.38;1.88;;;10.80;88.30;;;;;;4995928;28;20541;-77
2022/10/03 02:48:11;;;;;;;3.00;1.70;;;10.80;88.50;;;;;;4995835;28;20027;-80
2022/10/03 02:50:52;;;;;;;4.25;1.90;;;10.90;88.60;;;;;;4995758;28;20024;-78
2022/10/03 02:53:47;;;;;;;3.65;1.83;;;10.90;88.50;;;;;;4994705;28;20395;-79
2022/10/03 02:56:55;;;;;;;5.22;2.00;;;10.90;88.30;;;;;;4995641;28;20029;-78
2022/10/03 02:59:30;;;;;;;2.42;1.90;;;10.90;88.20;;;;;;4978118;28;20368;-78
2022/10/03 03:01:58;;;;;;;4.68;2.00;;;10.90;88.40;;;;;;4995487;28;20085;-77
2022/10/03 03:04:57;;;;;;;6.35;3.33;;;10.90;88.50;;;;;;4995482;28;20018;-78
2022/10/03 03:08:03;;;;;;;3.97;2.50;;;10.90;88.50;;;;;;4995251;28;20375;-77
2022/10/03 03:10:42;;;;;;;4.57;2.53;;;10.90;88.80;;;;;;4995496;28;20507;-78
2022/10/03 03:13:26;;;;;;;4.78;1.90;;;10.90;88.80;;;;;;4995166;28;20038;-78
2022/10/03 03:15:55;;;;;;;4.13;2.25;;;10.90;89.00;;;;;;5004002;28;20096;-77
2022/10/03 03:18:38;;;;;;;3.97;2.30;;;10.90;89.00;;;;;;5015184;28;20022;-76
2022/10/03 03:21:22;;;;;;;2.60;2.28;;;10.90;89.10;;;;;;4998029;28;20026;-76
2022/10/03 03:24:16;;;;;;;3.72;2.40;;;10.90;89.20;;;;;;5015044;28;20033;-76
2022/10/03 03:27:16;;;;;;;3.72;2.00;;;10.90;89.20;;;;;;5015424;28;20117;-77
2022/10/03 03:30:09;;;;;;;3.85;2.80;;;10.90;89.00;;;;;;5015442;28;20063;-76
2022/10/03 03:32:56;;;;;;;4.65;2.45;;;10.90;88.80;;;;;;5019881;28;20034;-77
2022/10/03 03:35:45;;;;;;;4.65;2.70;;;10.90;88.80;;;;;;5014484;28;20109;-76
2022/10/03 03:38:31;;;;;;;5.20;2.90;;;10.90;88.70;;;;;;5014485;28;20036;-78
2022/10/03 03:41:27;;;;;;;4.78;2.75;;;10.80;88.60;;;;;;5014450;28;20026;-78
2022/10/03 03:44:07;;;;;;;8.77;2.47;;;10.80;88.80;;;;;;5014412;28;20072;-78
2022/10/03 03:47:13;;;;;;;5.20;2.50;;;10.80;88.90;;;;;;5014227;28;20037;-78
2022/10/03 03:50:07;;;;;;;3.03;2.20;;;10.80;88.90;;;;;;4996462;28;20382;-78
2022/10/03 03:52:51;;;;;;;7.53;3.25;;;10.80;89.00;;;;;;5013902;28;20084;-79
2022/10/03 03:55:32;;;;;;;6.80;2.40;;;10.80;89.20;;;;;;5014107;28;20049;-78
2022/10/03 03:58:04;;;;;;;5.93;2.50;;;10.80;89.10;;;;;;5014261;28;20022;-79
2022/10/03 04:00:39;;;;;;;4.45;2.45;;;10.80;89.10;;;;;;5013951;28;20108;-79
2022/10/03 04:03:32;;;;;;;3.35;2.38;;;10.90;89.40;;;;;;5013909;28;20022;-78
2022/10/03 04:06:14;;;;;;;4.03;2.30;;;10.90;89.20;;;;;;4996125;28;20484;-79
2022/10/03 04:09:13;;;;;;;3.85;2.85;;;10.90;89.00;;;;;;4996341;28;20058;-79
2022/10/03 04:11:53;;;;;;;5.45;2.30;;;10.90;88.80;;;;;;5013810;28;20030;-77
2022/10/03 04:14:30;;;;;;;5.32;2.53;;;10.90;88.40;;;;;;5012462;28;20036;-78
2022/10/03 04:20:11;;;;;;;7.45;3.10;;;10.90;88.20;;;;;;5013840;28;20033;-77
2022/10/03 04:23:07;;;;;;;3.05;2.30;;;10.80;88.60;;;;;;5013702;28;20413;-76
2022/10/03 04:25:36;;;;;;;3.20;2.35;;;10.80;88.40;;;;;;5013648;28;20072;-76
2022/10/03 04:28:09;;;;;;;2.60;2.40;;;10.80;88.50;;;;;;5013463;28;20022;-77
2022/10/03 04:30:56;;;;;;;6.25;2.90;;;10.80;88.60;;;;;;5013653;28;20029;-77
2022/10/03 04:33:45;;;;;;;10.88;3.42;;;10.80;88.20;;;;;;5013388;28;20045;-77
2022/10/03 04:36:30;;;;;;;6.85;3.53;;;10.70;88.30;;;;;;5013606;28;20022;-77
2022/10/03 04:39:28;;;;;;;5.35;3.28;;;10.60;88.40;;;;;;5013458;28;20073;-77
2022/10/03 04:42:02;;;;;;;7.45;3.10;;;10.50;88.50;;;;;;4989177;28;20065;-78
2022/10/03 04:44:46;;;;;;;6.57;4.03;;;10.40;88.60;;;;;;5013503;28;20081;-78
2022/10/03 04:47:29;;;;;;;6.05;3.58;;;10.40;89.10;;;;;;5012738;28;20378;-78
2022/10/03 04:50:10;;;;;;;7.35;4.30;;;10.40;89.40;;;;;;4995646;28;20117;-77
2022/10/03 04:52:50;;;;;;;5.85;3.33;;;10.40;89.40;;;;;;5013131;28;20418;-77
2022/10/03 04:55:22;;;;;;;6.70;3.90;;;10.40;89.20;;;;;;5013253;28;20109;-77
2022/10/03 04:58:06;;;;;;;6.57;5.60;;;10.40;89.40;;;;;;5013396;28;20033;-77
2022/10/03 05:00:40;;;;;;;8.30;5.18;;;10.30;89.50;;;;;;5013195;28;20498;-78
2022/10/03 05:03:09;;;;;;;6.35;4.10;;;10.30;89.60;;;;;;5013217;28;20041;-78
2022/10/03 05:05:57;;;;;;;11.50;6.38;;;10.40;89.60;;;;;;5013135;28;20026;-78
2022/10/03 05:08:41;;;;;;;7.35;5.68;;;10.30;89.70;;;;;;4995408;28;20030;-78
2022/10/03 05:11:27;;;;;;;11.38;7.05;;;10.30;89.70;;;;;;5013166;28;20033;-79
2022/10/03 05:14:10;;;;;;;9.60;4.93;;;10.30;89.70;;;;;;5012872;28;20441;-77
2022/10/03 05:16:35;;;;;;;9.57;6.60;;;10.30;89.80;;;;;;5012934;28;20144;-77
2022/10/03 05:19:27;;;;;;;8.70;5.85;;;10.40;89.80;;;;;;5012945;28;20509;-78
2022/10/03 05:22:00;;;;;;;12.77;7.70;;;10.30;89.90;;;;;;5013116;28;20037;-79
2022/10/03 05:24:51;;;;;;;9.80;6.07;;;10.30;90.00;;;;;;5012864;28;20068;-78
2022/10/03 05:27:39;;;;;;;8.82;5.68;;;10.30;89.90;;;;;;4995412;28;20033;-79
2022/10/03 05:30:33;;;;;;;9.73;5.97;;;10.30;90.00;;;;;;5012773;28;20034;-78
2022/10/03 05:33:14;;;;;;;9.70;5.70;;;10.20;90.00;;;;;;5012474;28;20486;-78
2022/10/03 05:36:10;;;;;;;11.85;6.32;;;10.30;91.10;;;;;;4995314;28;20037;-79
2022/10/03 05:39:18;;;;;;;10.00;7.10;;;10.30;90.40;;;;;;5012773;28;20026;-78
2022/10/03 05:42:00;;;;;;;6.95;5.18;;;10.40;90.20;;;;;;5012806;28;20026;-78
2022/10/03 05:44:42;;;;;;;5.50;3.80;;;10.40;89.00;;;;;;5012747;28;20025;-79
2022/10/03 05:47:43;;;;;;;6.53;4.28;;;10.50;90.10;;;;;;5012880;28;20097;-78
2022/10/03 05:50:56;;;;;;;5.00;4.00;;;10.40;89.00;;;;;;5012867;28;20406;-78
2022/10/03 05:53:27;;;;;;;5.53;3.70;;;10.40;88.80;;;;;;4952183;28;20040;-78
2022/10/03 05:56:20;;;;;;;7.47;3.15;;;10.40;88.60;;;;;;5002943;28;20418;-78
2022/10/03 05:59:18;;;;;;;6.95;3.17;;;10.40;88.40;;;;;;5012783;28;20065;-78
2022/10/03 06:02:02;;;;;;;3.92;2.30;;;10.40;88.10;;;;;;5016273;28;20018;-78
2022/10/03 06:04:39;;;;;;;5.28;2.90;;;10.40;88.00;;;;;;5016281;28;20378;-78
2022/10/03 06:07:23;;;;;;;5.18;2.63;;;10.40;87.90;;;;;;5016714;28;20018;-78
2022/10/03 06:10:08;;;;;;;5.30;3.13;;;10.40;87.90;;;;;;5016334;28;20108;-80
2022/10/03 06:13:08;;;;;;;4.65;3.33;;;10.40;87.90;;;;;;5031032;28;20022;-77
2022/10/03 06:15:45;;;;;;;7.10;3.95;;;10.50;87.90;;;;;;5035572;28;20041;-79
2022/10/03 06:18:35;;;;;;;7.57;4.05;;;10.60;87.50;;;;;;5035841;28;20032;-78
2022/10/03 06:21:16;;;;;;;5.40;4.05;;;10.70;87.30;;;;;;5017992;28;20117;-78
2022/10/03 06:24:05;;;;;;;5.35;3.75;;;10.70;87.00;;;;;;5017721;28;20029;-79
2022/10/03 06:26:49;;;;;;;5.53;4.30;;;10.80;86.90;;;;;;5035706;28;20021;-78
2022/10/03 06:29:18;;;;;;;7.75;5.18;;;10.80;86.30;;;;;;5035824;28;20033;-79
2022/10/03 06:31:55;;;;;;;4.72;4.15;;;10.70;85.90;;;;;;5035760;28;20029;-77
2022/10/03 06:34:51;;;;;;;5.85;3.80;;;10.60;86.30;;;;;;5035375;28;20025;-78
2022/10/03 06:37:23;;;;;;;5.85;4.80;;;10.50;86.50;;;;;;5035496;28;20021;-78
2022/10/03 06:40:22;;;;;;;7.32;4.63;;;10.50;87.40;;;;;;5017633;28;20103;-78
2022/10/03 06:43:07;;;;;;;11.20;5.72;;;10.50;87.40;;;;;;5035818;28;20075;-78
2022/10/03 06:45:53;;;;;;;8.15;6.10;;;10.40;88.30;;;;;;5035490;28;20017;-79
2022/10/03 06:48:43;;;;;;;9.73;5.75;;;10.30;88.50;;;;;;5017503;28;20057;-81
2022/10/03 06:51:30;;;;;;;11.25;5.38;;;10.30;88.80;;;;;;5035260;28;20034;-78
2022/10/03 06:54:34;;;;;;;8.13;4.70;;;10.20;89.30;;;;;;5017396;28;20033;-79
2022/10/03 06:57:25;;;;;;;11.15;4.95;;;10.10;89.80;;;;;;5017186;28;20022;-77
2022/10/03 07:00:09;;;;;;;5.75;4.75;;;10.10;89.60;;;;;;5035009;28;20489;-79
2022/10/03 07:03:12;;;;;;;7.38;4.65;;;10.20;89.40;;;;;;5034720;28;20100;-79
2022/10/03 07:05:57;;;;;;;7.65;4.97;;;10.20;89.30;;;;;;5017121;28;20434;-80
2022/10/03 07:08:45;;;;;;;6.10;5.10;;;10.30;89.10;;;;;;5034956;28;20481;-77
2022/10/03 07:11:25;;;;;;;4.15;3.65;;;10.40;88.70;;;;;;5016472;28;20062;-78
2022/10/03 07:14:14;;;;;;;7.30;5.68;;;10.50;89.20;;;;;;5034764;28;20037;-77
2022/10/03 07:17:23;;;;;;;9.25;5.75;;;10.70;89.40;;;;;;5034559;28;20053;-77
2022/10/03 07:20:27;;;;;;;13.70;7.53;;;11.00;88.40;;;;;;5016523;28;20033;-78
2022/10/03 07:23:29;;;;;;;8.15;5.88;;;11.10;87.40;;;;;;5034523;28;20017;-78
2022/10/03 07:26:28;;;;;;;27.25;8.55;;;11.30;87.30;;;;;;5034742;28;20033;-80
2022/10/03 07:29:20;;;;;;;12.98;6.03;;;11.60;91.40;;;;;;5034494;28;20025;-76
2022/10/03 07:31:59;;;;;;;11.48;7.28;;;11.90;89.90;;;;;;5031726;28;20033;-78
2022/10/03 07:34:50;;;;;;;12.02;6.85;;;12.20;87.00;;;;;;5017160;28;20548;-82
2022/10/03 07:40:31;;;;;;;8.10;4.70;;;12.70;84.60;;;;;;5035459;28;20040;-82
2022/10/03 07:43:02;;;;;;;7.05;4.38;;;13.10;82.80;;;;;;5035238;28;20471;-82
2022/10/03 07:45:44;;;;;;;8.45;4.80;;;13.40;81.00;;;;;;5034408;28;20033;-82
2022/10/03 07:49:01;;;;;;;9.70;4.32;;;13.60;79.70;;;;;;5034326;28;20022;-82
2022/10/03 07:51:59;;;;;;;5.88;4.30;;;13.80;78.00;;;;;;5025183;28;20168;-83
2022/10/03 07:54:54;;;;;;;10.38;5.07;;;14.00;77.40;;;;;;5034359;28;20394;-82
2022/10/03 07:57:42;;;;;;;7.55;3.65;;;14.20;76.40;;;;;;5034296;28;20049;-82
2022/10/03 08:00:18;;;;;;;9.50;5.40;;;14.30;75.90;;;;;;5016438;28;20075;-82
2022/10/03 08:03:05;;;;;;;10.02;4.85;;;14.40;75.60;;;;;;5016598;28;20384;-83
2022/10/03 08:06:17;;;;;;;5.00;4.38;;;14.50;75.90;;;;;;5034173;28;20029;-81
2022/10/03 08:08:42;;;;;;;8.80;4.55;;;14.70;74.60;;;;;;5011049;28;20037;-83
2022/10/03 08:11:39;;;;;;;6.47;3.47;;;14.80;74.50;;;;;;5034169;28;20033;-81
2022/10/03 08:14:18;;;;;;;7.15;5.25;;;14.90;74.50;;;;;;5016539;28;20573;-82
2022/10/03 08:17:14;;;;;;;7.85;5.55;;;14.80;73.30;;;;;;5033630;28;20108;-83
2022/10/03 08:19:48;;;;;;;8.77;5.80;;;14.80;74.20;;;;;;5033571;28;20049;-81
2022/10/03 08:22:30;;;;;;;8.02;4.57;;;14.80;73.40;;;;;;5032667;28;20078;-84
2022/10/03 08:24:58;;;;;;;10.02;5.32;;;14.80;74.20;;;;;;5033630;28;20402;-83
2022/10/03 08:27:50;;;;;;;6.57;4.07;;;14.60;73.50;;;;;;5016117;28;20137;-83
2022/10/03 08:30:41;;;;;;;9.45;5.22;;;14.60;75.30;;;;;;5032177;28;20033;-77
2022/10/03 08:33:27;;;;;;;5.53;4.50;;;14.70;74.80;;;;;;5013582;28;20475;-80
2022/10/03 08:36:31;;;;;;;8.93;5.57;;;14.80;73.80;;;;;;5012496;28;20026;-81
2022/10/03 08:39:29;;;;;;;10.85;6.57;;;14.50;74.20;;;;;;5011905;28;20040;-83
2022/10/03 08:42:21;;;;;;;12.93;7.82;;;14.30;74.60;;;;;;5013378;28;20470;-79
2022/10/03 08:45:05;;;;;;;14.68;7.40;;;13.80;76.40;;;;;;5013611;28;20033;-80
2022/10/03 08:47:58;;;;;;;17.23;9.23;;;13.40;78.40;;;;;;5012443;28;20028;-80
2022/10/03 08:50:29;;;;;;;14.57;9.73;;;13.00;80.20;;;;;;5013546;28;20516;-78
2022/10/03 08:53:13;;;;;;;11.38;8.25;;;13.00;80.30;;;;;;5013619;28;20036;-79
2022/10/03 08:55:55;;;;;;;13.70;10.32;;;13.00;80.30;;;;;;5014470;28;20025;-80
2022/10/03 08:58:45;;;;;;;9.70;6.50;;;13.00;80.30;;;;;;5013050;28;20494;-79
2022/10/03 09:01:45;;;;;;;10.95;7.28;;;13.00;79.80;;;;;;5013409;28;20053;-79
2022/10/03 09:04:45;;;;;;;11.57;6.60;;;13.20;79.90;;;;;;5011765;28;20087;-79
2022/10/03 09:07:47;;;;;;;14.32;9.68;;;13.40;78.50;;;;;;5013423;28;20033;-82
2022/10/03 09:10:22;;;;;;;13.98;9.27;;;13.10;80.50;;;;;;5011601;28;20042;-81
2022/10/03 09:12:47;;;;;;;14.88;9.98;;;13.00;81.00;;;;;;5011902;28;20144;-80
2022/10/03 09:15:45;;;;;;;17.13;10.77;;;12.80;81.70;;;;;;5016608;28;20458;-80
2022/10/03 09:18:35;;;;;;;11.75;8.82;;;12.90;81.80;;;;;;5015166;28;20482;-79
2022/10/03 09:21:39;;;;;;;12.60;9.45;;;13.20;81.80;;;;;;5015121;28;20025;-80
2022/10/03 09:24:24;;;;;;;10.30;6.35;;;13.50;79.20;;;;;;5031457;28;20048;-79
2022/10/03 09:27:12;;;;;;;12.88;7.00;;;13.90;78.40;;;;;;5011681;28;20130;-79
2022/10/03 09:29:51;;;;;;;12.93;7.63;;;14.10;75.70;;;;;;5012856;28;20101;-78
2022/10/03 09:32:17;;;;;;;12.15;7.55;;;14.50;74.80;;;;;;5021230;28;20026;-77
2022/10/03 09:34:48;;;;;;;8.82;5.65;;;14.80;73.00;;;;;;5034396;28;20129;-78
2022/10/03 09:37:30;;;;;;;11.27;6.25;;;15.10;73.10;;;;;;5035270;28;20021;-78
2022/10/03 09:40:42;;;;;;;9.93;6.03;;;15.40;72.00;;;;;;5035242;28;20024;-79
2022/10/03 09:43:40;;;;;;;8.25;4.90;;;15.70;68.80;;;;;;5035190;28;20017;-79
2022/10/03 09:46:35;;;;;;;12.63;5.50;;;15.80;68.40;;;;;;5035851;28;20022;-78
2022/10/03 09:49:24;;;;;;;7.93;4.90;;;16.20;67.20;;;;;;5035896;28;20030;-79
2022/10/03 09:52:24;;;;;;;6.22;4.50;;;16.00;66.70;;;;;;5035722;28;20049;-78
2022/10/03 09:55:01;;;;;;;9.50;4.88;;;15.80;67.60;;;;;;5033419;28;20135;-77
2022/10/03 09:58:05;;;;;;;6.60;4.32;;;16.00;67.10;;;;;;5036100;28;20025;-79
2022/10/03 10:00:43;;;;;;;6.93;4.10;;;16.60;66.70;;;;;;5018297;28;20389;-80
2022/10/03 10:03:28;;;;;;;8.00;4.32;;;17.20;64.90;;;;;;5036129;28;20116;-77
2022/10/03 10:06:34;;;;;;;8.13;4.73;;;17.30;62.00;;;;;;5036377;28;20461;-79
2022/10/03 10:09:18;;;;;;;6.45;4.30;;;17.00;63.10;;;;;;5027977;28;20061;-78
2022/10/03 10:12:02;;;;;;;8.48;3.85;;;16.70;64.20;;;;;;5035851;28;20026;-79
2022/10/03 10:14:34;;;;;;;7.50;3.72;;;16.60;64.80;;;;;;5035843;28;20025;-80
2022/10/03 10:17:36;;;;;;;8.10;3.15;;;16.70;64.60;;;;;;5017972;28;20041;-77
2022/10/03 10:20:16;;;;;;;8.60;3.85;;;16.70;64.30;;;;;;5035547;28;20575;-78
2022/10/03 10:23:20;;;;;;;5.15;3.17;;;16.70;62.50;;;;;;5035821;28;20120;-81
2022/10/03 10:25:58;;;;;;;7.50;4.82;;;16.60;63.20;;;;;;5003826;28;20033;-79
2022/10/03 10:28:36;;;;;;;10.80;5.55;;;16.40;64.40;;;;;;5017731;28;20026;-78
2022/10/03 10:31:20;;;;;;;9.90;6.07;;;16.30;66.00;;;;;;5035411;28;20037;-78
2022/10/03 10:34:15;;;;;;;7.93;5.40;;;16.40;66.00;;;;;;5035260;28;20030;-80
2022/10/03 10:37:31;;;;;;;9.23;5.78;;;16.60;66.00;;;;;;5035427;28;20017;-80
2022/10/03 10:40:24;;;;;;;10.30;5.47;;;16.80;64.50;;;;;;5035734;28;20025;-79
2022/10/03 10:43:28;;;;;;;10.13;4.90;;;16.40;67.10;;;;;;5035351;28;20123;-79
2022/10/03 10:46:05;;;;;;;9.02;5.20;;;16.50;65.10;;;;;;5034544;28;20022;-79
2022/10/03 10:48:51;;;;;;;9.88;4.40;;;16.80;64.40;;;;;;5035552;28;20496;-78
2022/10/03 10:51:53;;;;;;;6.03;3.35;;;17.30;64.00;;;;;;5017610;28;20367;-79
2022/10/03 10:54:36;;;;;;;9.00;3.72;;;18.10;60.60;;;;;;5035467;28;20084;-77
2022/10/03 10:57:08;;;;;;;6.78;2.88;;;18.80;57.50;;;;;;5035200;28;20033;-77
2022/10/03 11:00:01;;;;;;;6.75;4.13;;;19.30;55.80;;;;;;5035257;28;20095;-77
2022/10/03 11:02:45;;;;;;;7.03;3.58;;;19.40;55.90;;;;;;5035074;28;20029;-78
2022/10/03 11:05:35;;;;;;;6.95;3.72;;;19.80;55.40;;;;;;5034947;28;20386;-78
2022/10/03 11:08:15;;;;;;;8.90;3.05;;;19.90;54.80;;;;;;5034830;28;20022;-78
2022/10/03 11:11:23;;;;;;;7.78;3.53;;;19.90;55.80;;;;;;5035044;28;20026;-80
2022/10/03 11:14:27;;;;;;;6.82;3.60;;;20.00;55.00;;;;;;5034768;28;20037;-77
2022/10/03 11:17:30;;;;;;;8.27;3.50;;;20.20;52.40;;;;;;5034430;28;20053;-78
2022/10/03 11:20:17;;;;;;;6.90;3.10;;;20.60;50.00;;;;;;5034546;28;20486;-78
2022/10/03 11:23:25;;;;;;;8.45;2.97;;;21.00;48.00;;;;;;5034409;28;20476;-80
2022/10/03 11:26:05;;;;;;;8.80;3.63;;;21.40;49.40;;;;;;5034651;28;20029;-79
2022/10/03 11:29:02;;;;;;;7.47;2.88;;;21.60;45.60;;;;;;5034515;28;20029;-80
2022/10/03 11:32:08;;;;;;;5.03;2.55;;;21.90;47.50;;;;;;5034493;28;20478;-80
2022/10/03 11:35:20;;;;;;;7.27;2.97;;;22.10;45.50;;;;;;5034351;28;20116;-78
2022/10/03 11:38:04;;;;;;;8.68;2.90;;;21.40;44.90;;;;;;5034428;28;20271;-78
2022/10/03 11:40:48;;;;;;;7.78;3.58;;;20.40;47.30;;;;;;5033942;28;20018;-78
2022/10/03 11:43:34;;;;;;;9.32;3.20;;;19.80;49.40;;;;;;5034191;28;20025;-78
2022/10/03 11:46:28;;;;;;;6.40;2.83;;;19.80;49.40;;;;;;5034181;28;20026;-76
2022/10/03 11:49:21;;;;;;;7.60;3.00;;;20.10;50.30;;;;;;5034333;28;20021;-78
2022/10/03 11:51:51;;;;;;;7.72;2.85;;;20.10;50.30;;;;;;5034079;28;20021;-77
2022/10/03 11:54:28;;;;;;;6.70;2.78;;;20.40;47.60;;;;;;5016170;28;20041;-78
2022/10/03 11:57:07;;;;;;;11.00;3.30;;;20.90;47.90;;;;;;5033945;28;20096;-78
2022/10/03 11:59:50;;;;;;;6.18;2.40;;;21.00;46.70;;;;;;5033953;28;20030;-78
2022/10/03 12:02:48;;;;;;;6.20;2.65;;;21.10;47.60;;;;;;5034064;28;20025;-78
2022/10/03 12:05:31;;;;;;;8.15;2.97;;;21.20;48.00;;;;;;5015992;28;20428;-79
2022/10/03 12:11:13;;;;;;;5.20;2.83;;;21.10;47.10;;;;;;5033827;28;20075;-77
2022/10/03 12:14:13;;;;;;;8.13;2.45;;;20.70;46.00;;;;;;5033446;28;20048;-78
2022/10/03 12:17:01;;;;;;;8.52;3.25;;;20.70;47.80;;;;;;5001365;28;20099;-77
2022/10/03 12:19:33;;;;;;;5.78;2.47;;;20.90;46.60;;;;;;5033485;28;20116;-78
2022/10/03 12:22:16;;;;;;;5.45;2.63;;;21.20;46.40;;;;;;5015860;28;20029;-79
2022/10/03 12:24:44;;;;;;;7.63;2.10;;;21.70;46.40;;;;;;5033514;28;20021;-79
2022/10/03 12:27:29;;;;;;;5.07;2.03;;;21.90;44.40;;;;;;5015762;28;20028;-79
2022/10/03 12:30:13;;;;;;;7.72;2.05;;;21.90;43.60;;;;;;5033563;28;20028;-78
2022/10/03 12:32:58;;;;;;;5.70;2.00;;;21.80;43.90;;;;;;5033232;28;20121;-78
2022/10/03 12:35:42;;;;;;;5.63;2.92;;;21.60;44.30;;;;;;5033407;28;20100;-79
2022/10/03 12:38:32;;;;;;;11.30;2.90;;;21.00;44.30;;;;;;5033480;28;20048;-79
2022/10/03 12:41:24;;;;;;;6.45;3.00;;;20.10;46.80;;;;;;5032856;28;20030;-78
2022/10/03 12:44:19;;;;;;;4.55;2.35;;;19.90;49.70;;;;;;5033285;28;20029;-79
2022/10/03 12:46:48;;;;;;;7.68;2.83;;;20.50;48.20;;;;;;5033153;28;20029;-79
2022/10/03 12:49:18;;;;;;;8.45;3.15;;;20.30;47.60;;;;;;5033195;28;20045;-78
2022/10/03 12:51:51;;;;;;;5.63;2.10;;;20.40;46.90;;;;;;5015381;28;20108;-79
2022/10/03 12:54:39;;;;;;;3.58;1.83;;;20.80;46.20;;;;;;5032748;28;20033;-79
2022/10/03 12:57:33;;;;;;;4.57;2.05;;;21.50;43.90;;;;;;5031624;28;20474;-79
2022/10/03 13:00:13;;;;;;;4.53;1.70;;;22.40;41.40;;;;;;5033339;28;20040;-80
2022/10/03 13:03:04;;;;;;;4.00;2.05;;;23.00;40.80;;;;;;5015670;28;20021;-78
2022/10/03 13:05:48;;;;;;;7.97;2.38;;;23.40;40.90;;;;;;5032797;28;20029;-79
2022/10/03 13:08:25;;;;;;;6.20;2.53;;;23.70;40.70;;;;;;5032363;28;20029;-79
2022/10/03 13:11:02;;;;;;;6.10;2.58;;;23.50;39.50;;;;;;5015190;28;20116;-78
2022/10/03 13:14:05;;;;;;;8.65;2.90;;;23.00;39.30;;;;;;5015180;28;20033;-79
2022/10/03 13:16:51;;;;;;;6.70;2.40;;;22.30;40.70;;;;;;5032610;28;20429;-79
2022/10/03 13:19:22;;;;;;;6.50;2.67;;;21.60;42.20;;;;;;5032904;28;20029;-78
2022/10/03 13:21:50;;;;;;;4.65;1.67;;;21.20;43.30;;;;;;5032687;28;20137;-78
2022/10/03 13:24:44;;;;;;;6.82;2.50;;;21.00;44.40;;;;;;5032681;28;20072;-78
2022/10/03 13:27:24;;;;;;;6.05;2.28;;;21.20;44.00;;;;;;5032703;28;20037;-79
2022/10/03 13:30:05;;;;;;;4.20;2.00;;;21.80;42.90;;;;;;5032772;28;20083;-77
2022/10/03 13:32:32;;;;;;;7.75;2.60;;;22.40;42.20;;;;;;5032522;28;20059;-77
2022/10/03 13:38:16;;;;;;;5.60;1.98;;;22.10;39.50;;;;;;5032960;28;20500;-79
2022/10/03 13:40:57;;;;;;;4.28;1.73;;;22.50;38.40;;;;;;5032728;28;20053;-79
2022/10/03 13:43:34;;;;;;;6.20;1.85;;;22.80;38.00;;;;;;5015101;28;20032;-78
2022/10/03 13:46:07;;;;;;;4.80;2.00;;;23.30;37.20;;;;;;5032840;28;20022;-79
2022/10/03 13:48:34;;;;;;;5.70;2.10;;;23.70;36.90;;;;;;5032663;28;20083;-79
2022/10/03 13:51:07;;;;;;;6.95;2.00;;;24.20;36.60;;;;;;5032607;28;20481;-78
2022/10/03 13:54:00;;;;;;;5.03;2.00;;;24.60;35.40;;;;;;5032389;28;20055;-77
2022/10/03 13:56:51;;;;;;;5.57;1.67;;;24.90;35.60;;;;;;5029769;28;20049;-80
2022/10/03 13:59:41;;;;;;;5.78;1.98;;;25.20;34.10;;;;;;5032510;28;20017;-79
2022/10/03 14:02:29;;;;;;;4.60;2.08;;;25.40;33.20;;;;;;5032619;28;20072;-78
2022/10/03 14:05:22;;;;;;;4.75;1.90;;;25.50;32.90;;;;;;5032385;28;20025;-78
2022/10/03 14:08:27;;;;;;;3.38;1.92;;;25.60;32.00;;;;;;5032436;28;20025;-79
2022/10/03 14:11:21;;;;;;;3.70;1.42;;;25.50;32.30;;;;;;5032482;28;20040;-78
2022/10/03 14:13:51;;;;;;;9.98;2.10;;;25.80;31.90;;;;;;5032294;28;20037;-78
2022/10/03 14:16:20;;;;;;;6.72;1.95;;;25.70;30.50;;;;;;5032344;28;20087;-79
2022/10/03 14:19:12;;;;;;;5.78;1.83;;;25.90;30.70;;;;;;5032528;28;20033;-77
2022/10/03 14:21:54;;;;;;;4.53;1.85;;;26.00;31.30;;;;;;5034925;28;20101;-80
2022/10/03 14:24:50;;;;;;;4.78;1.92;;;26.10;31.20;;;;;;5035732;28;20029;-78
2022/10/03 14:27:50;;;;;;;5.13;2.05;;;26.30;31.30;;;;;;5035832;28;20044;-78
2022/10/03 14:30:18;;;;;;;5.05;1.75;;;26.50;30.80;;;;;;5017772;28;20026;-78
2022/10/03 14:33:13;;;;;;;5.68;1.90;;;26.80;29.20;;;;;;5035418;28;20037;-79
2022/10/03 14:35:40;;;;;;;6.68;1.98;;;27.20;29.60;;;;;;5035458;28;20037;-79
2022/10/03 14:38:56;;;;;;;5.22;1.98;;;27.60;28.20;;;;;;5017690;28;20029;-78
2022/10/03 14:41:17;;;;;;;7.18;2.25;;;27.90;28.10;;;;;;5035366;28;20037;-79